Time;durP1;ratioP1;P1;durP2;ratioP2;P2;SDS_P1;SDS_P2;PMS_P1;PMS_P2;Temp;Humidity;BMP_temperature;BMP_pressure;BME280_temperature;BME280_humidity;BME280_pressure;Samples;Min_cycle;Max_cycle;Signal;HPM_P1;HPM_P2
2023/07/21 00:01:16;;;;;;;9.32;5.20;;;25.30;72.10;;;;;;4957138;28;20425;-61
2023/07/21 00:03:43;;;;;;;10.07;5.40;;;25.30;72.30;;;;;;4956117;28;20086;-61
2023/07/21 00:06:09;;;;;;;7.35;5.22;;;25.20;72.50;;;;;;4957076;28;20024;-61
2023/07/21 00:08:38;;;;;;;8.80;5.28;;;25.20;72.40;;;;;;4957355;28;20031;-61
2023/07/21 00:11:04;;;;;;;8.38;4.97;;;25.30;72.40;;;;;;4957087;28;20035;-61
2023/07/21 00:13:35;;;;;;;10.70;5.32;;;25.20;72.30;;;;;;4956941;28;20067;-61
2023/07/21 00:16:03;;;;;;;8.82;5.57;;;25.20;72.40;;;;;;4957290;28;20097;-61
2023/07/21 00:18:32;;;;;;;8.40;5.40;;;25.10;72.40;;;;;;4956865;28;20028;-61
2023/07/21 00:20:58;;;;;;;9.15;5.57;;;25.10;72.40;;;;;;4957187;28;20031;-61
2023/07/21 00:23:26;;;;;;;8.07;4.78;;;25.00;72.40;;;;;;4957104;28;20154;-61
2023/07/21 00:25:52;;;;;;;7.45;4.30;;;24.90;72.30;;;;;;4959060;28;20390;-61
2023/07/21 00:28:20;;;;;;;9.77;4.30;;;24.90;72.20;;;;;;4960880;28;20452;-67
2023/07/21 00:30:47;;;;;;;10.65;5.45;;;25.00;72.20;;;;;;4959941;29;20042;-61
2023/07/21 00:33:15;;;;;;;10.52;5.65;;;25.10;72.20;;;;;;4961087;28;20360;-61
2023/07/21 00:35:40;;;;;;;13.27;5.63;;;25.00;72.00;;;;;;4960966;28;20035;-67
2023/07/21 00:38:07;;;;;;;8.95;5.45;;;25.10;72.00;;;;;;4960661;28;20046;-60
2023/07/21 00:40:35;;;;;;;13.02;5.53;;;25.10;72.00;;;;;;4960914;28;20031;-66
2023/07/21 00:43:03;;;;;;;9.68;5.22;;;25.00;72.00;;;;;;4960601;28;20532;-61
2023/07/21 00:45:34;;;;;;;11.30;5.25;;;24.90;72.00;;;;;;4960431;28;20039;-66
2023/07/21 00:48:07;;;;;;;9.85;5.68;;;24.90;71.90;;;;;;4960820;28;20023;-61
2023/07/21 00:50:40;;;;;;;9.90;4.80;;;24.90;71.90;;;;;;4961081;28;20055;-61
2023/07/21 00:53:07;;;;;;;8.70;5.07;;;24.90;71.80;;;;;;4959506;28;20306;-61
2023/07/21 00:55:34;;;;;;;9.65;4.85;;;24.90;71.80;;;;;;4960162;28;20055;-66
2023/07/21 00:58:00;;;;;;;9.27;5.53;;;24.80;71.70;;;;;;4960295;28;20039;-67
2023/07/21 01:00:27;;;;;;;11.02;4.75;;;24.80;71.70;;;;;;4960599;28;20027;-67
2023/07/21 01:02:55;;;;;;;8.75;4.43;;;24.80;71.70;;;;;;4959664;28;20035;-67
2023/07/21 01:05:21;;;;;;;10.27;4.60;;;24.80;71.70;;;;;;4960222;28;20353;-67
2023/07/21 01:07:47;;;;;;;9.48;4.82;;;24.80;71.70;;;;;;4960195;28;20046;-61
2023/07/21 01:10:13;;;;;;;7.80;4.32;;;24.80;71.70;;;;;;4960388;28;20047;-67
2023/07/21 01:12:40;;;;;;;8.15;4.82;;;24.80;71.70;;;;;;4960094;28;20028;-61
2023/07/21 01:15:06;;;;;;;8.32;4.18;;;24.80;71.70;;;;;;4960113;28;20106;-61
2023/07/21 01:17:33;;;;;;;9.95;4.60;;;24.80;71.70;;;;;;4960476;28;20034;-61
2023/07/21 01:20:00;;;;;;;7.90;4.47;;;24.80;71.70;;;;;;4959954;28;20353;-61
2023/07/21 01:22:31;;;;;;;9.98;4.85;;;24.80;71.70;;;;;;4960208;28;20027;-61
2023/07/21 01:25:11;;;;;;;8.60;4.50;;;24.80;71.80;;;;;;4960073;28;20110;-61
2023/07/21 01:27:40;;;;;;;9.10;4.70;;;24.80;71.90;;;;;;4959753;28;20027;-61
2023/07/21 01:30:12;;;;;;;7.88;4.90;;;24.80;71.90;;;;;;4959812;28;20110;-66
2023/07/21 01:32:41;;;;;;;8.27;4.75;;;24.70;72.00;;;;;;4960042;28;20031;-61
2023/07/21 01:35:09;;;;;;;11.55;4.90;;;24.70;72.00;;;;;;4959619;28;20122;-62
2023/07/21 01:37:40;;;;;;;7.93;4.45;;;24.70;72.00;;;;;;4958749;28;20059;-61
2023/07/21 01:40:13;;;;;;;9.30;5.40;;;24.70;71.90;;;;;;4959920;28;20031;-61
2023/07/21 01:42:39;;;;;;;;;;;24.80;71.90;;;;;;4959969;28;20110;-61
2023/07/21 01:45:07;;;;;;;14.48;5.05;;;24.80;71.80;;;;;;4959496;28;20347;-66
2023/07/21 01:47:34;;;;;;;9.82;4.82;;;24.80;71.70;;;;;;4959718;28;20027;-61
2023/07/21 01:50:01;;;;;;;7.55;4.68;;;24.80;71.70;;;;;;4959471;28;20035;-67
2023/07/21 01:52:29;;;;;;;7.50;4.93;;;24.80;71.70;;;;;;4959463;28;20059;-67
2023/07/21 01:55:13;;;;;;;8.93;4.80;;;24.80;71.70;;;;;;4959073;28;20058;-67
2023/07/21 01:57:43;;;;;;;;;;;24.80;71.80;;;;;;4959949;28;20051;-61
2023/07/21 02:00:12;;;;;;;12.90;5.15;;;24.80;71.70;;;;;;4958344;29;19917;-67
2023/07/21 02:02:40;;;;;;;10.88;5.22;;;24.80;71.50;;;;;;4959471;28;20038;-61
2023/07/21 02:05:20;;;;;;;9.10;4.57;;;24.80;71.50;;;;;;4959377;28;20020;-61
2023/07/21 02:07:46;;;;;;;12.50;5.20;;;24.90;71.20;;;;;;4959446;28;20121;-61
2023/07/21 02:10:12;;;;;;;10.40;5.20;;;24.90;71.10;;;;;;4959127;28;20054;-61
2023/07/21 02:12:39;;;;;;;9.60;4.60;;;24.90;71.10;;;;;;4958143;29;20062;-61
2023/07/21 02:15:08;;;;;;;8.45;4.70;;;24.80;71.00;;;;;;4958918;28;20027;-61
2023/07/21 02:17:34;;;;;;;11.38;4.68;;;24.80;70.90;;;;;;4958828;28;20038;-66
2023/07/21 02:20:07;;;;;;;8.80;4.60;;;24.80;70.80;;;;;;4958860;28;20031;-61
2023/07/21 02:22:33;;;;;;;6.87;4.47;;;24.80;70.60;;;;;;4959191;28;20031;-67
2023/07/21 02:24:59;;;;;;;7.00;4.40;;;24.90;70.40;;;;;;4958968;28;20270;-64
2023/07/21 02:27:26;;;;;;;8.98;4.40;;;24.90;70.10;;;;;;4958741;28;20050;-67
2023/07/21 02:29:52;;;;;;;9.45;4.95;;;24.90;69.80;;;;;;4958722;28;20078;-61
2023/07/21 02:32:18;;;;;;;8.75;4.80;;;24.90;69.40;;;;;;4958923;28;20035;-67
2023/07/21 02:34:44;;;;;;;8.38;4.75;;;25.00;69.20;;;;;;4958575;28;20043;-61
2023/07/21 02:37:10;;;;;;;7.72;4.70;;;25.00;69.10;;;;;;4958524;28;20095;-61
2023/07/21 02:39:35;;;;;;;9.20;4.80;;;25.00;69.00;;;;;;4958586;28;20034;-61
2023/07/21 02:42:01;;;;;;;8.77;4.63;;;24.90;69.20;;;;;;4958508;28;20027;-67
2023/07/21 02:44:27;;;;;;;7.72;4.53;;;24.90;69.30;;;;;;4958396;28;20097;-67
2023/07/21 02:46:54;;;;;;;8.38;4.65;;;24.80;69.40;;;;;;4958946;28;20501;-67
2023/07/21 02:49:20;;;;;;;10.27;4.60;;;24.80;69.20;;;;;;4957258;28;20023;-67
2023/07/21 02:51:46;;;;;;;8.30;4.60;;;24.80;69.10;;;;;;4958644;28;20027;-66
2023/07/21 02:54:12;;;;;;;9.93;4.97;;;24.90;68.80;;;;;;4958442;28;20476;-67
2023/07/21 02:56:38;;;;;;;9.57;5.13;;;24.90;68.70;;;;;;4958219;28;20023;-66
2023/07/21 02:59:04;;;;;;;9.68;4.57;;;24.80;68.80;;;;;;4958119;28;20035;-66
2023/07/21 03:01:31;;;;;;;7.15;4.47;;;24.80;68.90;;;;;;4958447;28;20019;-67
2023/07/21 03:03:57;;;;;;;10.10;5.03;;;24.80;69.00;;;;;;4958102;28;20027;-66
2023/07/21 03:06:23;;;;;;;10.20;5.10;;;24.80;69.00;;;;;;4958117;28;20361;-67
2023/07/21 03:08:49;;;;;;;8.07;4.88;;;24.90;68.80;;;;;;4958310;28;20035;-67
2023/07/21 03:11:17;;;;;;;10.18;4.78;;;24.80;68.60;;;;;;4958003;28;20027;-67
2023/07/21 03:13:46;;;;;;;10.43;5.20;;;24.80;68.70;;;;;;4957883;28;20042;-61
2023/07/21 03:16:13;;;;;;;7.05;4.38;;;24.70;68.80;;;;;;4958214;28;20031;-62
2023/07/21 03:18:39;;;;;;;9.93;4.75;;;24.70;68.80;;;;;;4957741;28;20038;-67
2023/07/21 03:21:05;;;;;;;9.32;4.75;;;24.70;68.90;;;;;;4957886;28;20050;-66
2023/07/21 03:23:31;;;;;;;8.15;4.88;;;24.70;68.80;;;;;;4957712;28;20027;-61
2023/07/21 03:25:58;;;;;;;7.72;4.70;;;24.70;68.70;;;;;;4958041;28;20142;-66
2023/07/21 03:28:26;;;;;;;7.18;4.78;;;24.70;68.70;;;;;;4958224;28;20054;-67
2023/07/21 03:30:59;;;;;;;8.55;4.75;;;24.60;68.80;;;;;;4957619;28;20055;-61
2023/07/21 03:33:25;;;;;;;;;;;24.50;68.90;;;;;;4957971;28;20031;-66
2023/07/21 03:36:00;;;;;;;8.80;4.82;;;24.50;68.90;;;;;;4957847;28;19907;-67
2023/07/21 03:38:27;;;;;;;9.68;4.57;;;24.50;68.90;;;;;;4957962;28;20030;-61
2023/07/21 03:41:07;;;;;;;11.15;5.13;;;24.50;68.90;;;;;;4957442;28;20086;-67
2023/07/21 03:43:35;;;;;;;8.40;4.40;;;24.40;69.00;;;;;;4957653;28;20472;-61
2023/07/21 03:46:02;;;;;;;8.85;4.63;;;24.40;69.00;;;;;;4957694;28;20054;-61
2023/07/21 03:48:29;;;;;;;8.00;4.82;;;24.40;69.10;;;;;;4957403;28;20110;-67
2023/07/21 03:51:00;;;;;;;13.02;4.70;;;24.40;69.20;;;;;;4957381;28;20080;-61
2023/07/21 03:53:27;;;;;;;8.25;4.68;;;24.30;69.30;;;;;;4957774;28;20023;-61
2023/07/21 03:55:53;;;;;;;8.55;4.40;;;24.30;69.30;;;;;;4956981;28;20161;-62
2023/07/21 03:58:20;;;;;;;6.90;4.50;;;24.30;69.20;;;;;;4957411;28;20023;-61
2023/07/21 04:00:46;;;;;;;8.68;4.80;;;24.30;69.20;;;;;;4956911;28;20031;-66
2023/07/21 04:03:13;;;;;;;8.07;4.85;;;24.30;69.20;;;;;;4957431;28;20311;-61
2023/07/21 04:05:40;;;;;;;8.50;4.80;;;24.30;69.20;;;;;;4957591;28;20072;-62
2023/07/21 04:08:06;;;;;;;8.55;4.55;;;24.20;69.30;;;;;;4957137;28;20476;-66
2023/07/21 04:10:32;;;;;;;8.00;4.57;;;24.20;69.30;;;;;;4957349;28;20031;-65
2023/07/21 04:12:59;;;;;;;9.30;4.38;;;24.20;69.30;;;;;;4956119;28;20031;-61
2023/07/21 04:15:26;;;;;;;7.78;4.63;;;24.20;69.20;;;;;;4957023;28;20038;-61
2023/07/21 04:17:53;;;;;;;7.07;4.05;;;24.30;69.10;;;;;;4956956;28;20349;-61
2023/07/21 04:20:19;;;;;;;8.05;4.35;;;24.30;69.00;;;;;;4957034;28;20497;-61
2023/07/21 04:22:45;;;;;;;8.35;4.50;;;24.30;69.00;;;;;;4957269;28;20023;-61
2023/07/21 04:25:12;;;;;;;6.82;4.25;;;24.30;69.00;;;;;;4956869;28;20059;-61
2023/07/21 04:27:38;;;;;;;7.30;4.47;;;24.30;68.90;;;;;;4957222;28;20102;-66
2023/07/21 04:30:05;;;;;;;9.65;4.72;;;24.30;69.00;;;;;;4956918;28;20031;-62
2023/07/21 04:32:31;;;;;;;7.28;4.00;;;24.30;69.00;;;;;;4956948;28;20027;-61
2023/07/21 04:34:57;;;;;;;10.32;4.72;;;24.40;68.90;;;;;;4956863;28;20090;-65
2023/07/21 04:37:23;;;;;;;8.23;4.93;;;24.40;68.70;;;;;;4957311;28;20028;-61
2023/07/21 04:39:49;;;;;;;8.10;4.85;;;24.50;68.60;;;;;;4956894;28;20449;-61
2023/07/21 04:42:15;;;;;;;7.80;4.15;;;24.60;68.60;;;;;;4957121;28;20028;-62
2023/07/21 04:44:43;;;;;;;8.68;4.47;;;24.80;68.40;;;;;;4956785;28;20034;-66
2023/07/21 04:47:09;;;;;;;7.53;4.68;;;25.10;67.90;;;;;;4956786;28;20058;-61
2023/07/21 04:49:34;;;;;;;8.40;4.78;;;25.70;66.80;;;;;;4957041;28;20054;-62
2023/07/21 04:52:02;;;;;;;7.68;4.60;;;26.30;65.50;;;;;;4956753;28;20071;-61
2023/07/21 04:54:28;;;;;;;10.50;5.20;;;26.90;64.20;;;;;;4955483;28;20429;-62
2023/07/21 04:56:54;;;;;;;8.48;5.90;;;27.40;62.70;;;;;;4956024;29;20015;-62
2023/07/21 04:59:21;;;;;;;9.80;6.60;;;28.00;60.40;;;;;;4956711;28;20148;-61
2023/07/21 05:01:47;;;;;;;10.15;6.00;;;28.40;58.80;;;;;;4956675;28;20031;-62
2023/07/21 05:04:19;;;;;;;10.30;5.68;;;28.40;57.90;;;;;;4955602;28;20437;-65
2023/07/21 05:06:48;;;;;;;10.57;4.68;;;28.20;58.40;;;;;;4956630;28;20078;-62
2023/07/21 05:09:15;;;;;;;7.97;4.60;;;28.50;58.50;;;;;;4956588;28;20098;-61
2023/07/21 05:11:42;;;;;;;6.97;4.50;;;29.10;57.60;;;;;;4958204;28;20031;-67
2023/07/21 05:14:08;;;;;;;6.63;3.97;;;29.70;55.90;;;;;;4960049;28;20050;-62
2023/07/21 05:16:37;;;;;;;6.80;4.28;;;30.40;54.20;;;;;;4960314;28;20091;-62
2023/07/21 05:19:06;;;;;;;8.93;4.43;;;30.90;52.40;;;;;;4960504;28;20036;-62
2023/07/21 05:21:32;;;;;;;5.72;3.83;;;31.60;51.20;;;;;;4960520;28;20024;-62
2023/07/21 05:23:58;;;;;;;7.95;3.95;;;32.30;49.50;;;;;;4959917;28;20075;-67
2023/07/21 05:26:24;;;;;;;6.22;4.15;;;32.90;48.30;;;;;;4959926;28;20078;-67
2023/07/21 05:28:50;;;;;;;9.00;4.05;;;33.40;47.20;;;;;;4959858;28;20046;-62
2023/07/21 05:31:16;;;;;;;7.10;3.65;;;33.90;46.50;;;;;;4960061;28;20023;-62
2023/07/21 05:33:42;;;;;;;8.18;4.10;;;34.60;45.60;;;;;;4959719;28;20050;-62
2023/07/21 05:36:10;;;;;;;6.18;3.80;;;35.10;43.20;;;;;;4960500;28;20354;-62
2023/07/21 05:38:37;;;;;;;7.50;3.95;;;35.50;42.20;;;;;;4958585;28;20035;-62
2023/07/21 05:41:04;;;;;;;6.40;3.80;;;36.00;41.90;;;;;;4958653;29;20027;-62
2023/07/21 05:43:31;;;;;;;6.80;3.80;;;36.50;40.90;;;;;;4959718;28;20357;-62
2023/07/21 05:45:57;;;;;;;6.32;3.53;;;36.90;40.10;;;;;;4959526;28;20054;-62
2023/07/21 05:48:24;;;;;;;6.38;4.03;;;37.40;39.40;;;;;;4959391;28;20067;-62
2023/07/21 05:50:52;;;;;;;6.45;4.05;;;37.30;38.80;;;;;;4959603;28;20031;-66
2023/07/21 05:53:19;;;;;;;6.88;3.95;;;36.50;39.40;;;;;;4958901;28;20446;-63
2023/07/21 05:55:46;;;;;;;6.50;3.75;;;35.30;41.00;;;;;;4959007;28;20047;-65
2023/07/21 05:58:13;;;;;;;7.68;4.10;;;34.10;42.90;;;;;;4959321;29;20077;-65
2023/07/21 06:00:39;;;;;;;8.13;4.07;;;33.20;44.50;;;;;;4959177;28;20070;-62
2023/07/21 06:03:06;;;;;;;6.22;3.90;;;32.40;45.80;;;;;;4959171;28;20457;-62
2023/07/21 06:05:36;;;;;;;7.78;4.28;;;31.60;47.20;;;;;;4958983;28;20023;-62
2023/07/21 06:08:05;;;;;;;8.55;4.25;;;31.00;48.50;;;;;;4958988;28;20366;-65
2023/07/21 06:10:32;;;;;;;7.10;3.85;;;30.60;49.50;;;;;;4959282;28;20035;-62
2023/07/21 06:12:59;;;;;;;8.65;4.45;;;30.10;50.60;;;;;;4942055;29;20129;-62
2023/07/21 06:15:25;;;;;;;8.00;4.13;;;29.70;51.40;;;;;;4959417;28;20069;-66
2023/07/21 06:17:52;;;;;;;6.93;4.25;;;29.30;51.80;;;;;;4959334;28;20434;-63
2023/07/21 06:20:23;;;;;;;5.38;3.72;;;29.00;52.70;;;;;;4959118;28;20129;-64
2023/07/21 06:22:49;;;;;;;8.48;3.92;;;28.90;53.50;;;;;;4958256;28;20027;-67
2023/07/21 06:25:15;;;;;;;7.97;4.20;;;29.00;53.50;;;;;;4958701;28;20342;-66
2023/07/21 06:27:44;;;;;;;7.75;3.88;;;28.90;53.50;;;;;;4957772;28;20043;-62
2023/07/21 06:30:13;;;;;;;6.65;4.43;;;28.80;53.70;;;;;;4958629;28;20035;-63
2023/07/21 06:32:42;;;;;;;6.93;4.10;;;28.80;54.00;;;;;;4959110;28;20035;-68
2023/07/21 06:35:12;;;;;;;7.57;4.38;;;28.90;54.50;;;;;;4957941;29;20031;-64
2023/07/21 06:37:39;;;;;;;8.10;3.92;;;28.90;54.40;;;;;;4958947;28;20397;-67
2023/07/21 06:40:09;;;;;;;7.78;4.00;;;28.90;54.40;;;;;;4958713;28;20083;-66
2023/07/21 06:42:35;;;;;;;10.35;4.30;;;29.30;54.10;;;;;;4958744;28;20031;-65
2023/07/21 06:45:02;;;;;;;8.05;4.20;;;30.20;52.70;;;;;;4958636;28;20163;-64
2023/07/21 06:47:28;;;;;;;7.80;4.28;;;31.60;50.40;;;;;;4958974;28;20177;-60
2023/07/21 06:49:53;;;;;;;6.75;3.95;;;32.50;47.90;;;;;;4958704;28;20050;-66
2023/07/21 06:52:19;;;;;;;10.48;4.40;;;32.70;47.00;;;;;;4958300;28;20027;-67
2023/07/21 06:54:45;;;;;;;7.80;3.75;;;32.50;47.30;;;;;;4958188;28;20082;-58
2023/07/21 06:57:11;;;;;;;6.80;4.18;;;32.00;47.80;;;;;;4958248;28;20464;-65
2023/07/21 06:59:38;;;;;;;6.85;3.33;;;31.50;48.60;;;;;;4957246;28;20104;-59
2023/07/21 07:02:05;;;;;;;8.00;3.67;;;31.10;48.90;;;;;;4958454;28;20024;-65
2023/07/21 07:04:33;;;;;;;5.45;3.60;;;30.50;49.10;;;;;;4958140;28;20082;-61
2023/07/21 07:06:59;;;;;;;11.73;3.92;;;30.20;49.90;;;;;;4957991;28;20035;-65
2023/07/21 07:09:25;;;;;;;8.02;3.63;;;29.90;50.70;;;;;;4956284;28;20030;-64
2023/07/21 07:11:54;;;;;;;7.25;3.60;;;29.90;51.20;;;;;;4956562;28;20024;-62
2023/07/21 07:14:19;;;;;;;6.70;3.53;;;30.00;51.10;;;;;;4956570;28;20025;-64
2023/07/21 07:16:45;;;;;;;7.40;3.83;;;30.00;50.80;;;;;;4955570;29;20051;-61
2023/07/21 07:19:11;;;;;;;7.65;3.85;;;30.10;50.30;;;;;;4956445;28;20102;-64
2023/07/21 07:21:37;;;;;;;7.32;3.97;;;30.10;50.30;;;;;;4956531;28;20028;-62
2023/07/21 07:24:03;;;;;;;6.80;4.10;;;30.20;49.70;;;;;;4956934;28;20066;-62
2023/07/21 07:26:29;;;;;;;8.75;3.92;;;30.20;50.30;;;;;;4957723;28;20031;-62
2023/07/21 07:28:57;;;;;;;6.47;4.05;;;30.30;50.00;;;;;;4957678;28;20023;-62
2023/07/21 07:31:23;;;;;;;6.82;3.80;;;30.30;50.10;;;;;;4956670;28;20046;-64
2023/07/21 07:33:49;;;;;;;7.20;3.65;;;30.40;50.40;;;;;;4956428;28;20469;-61
2023/07/21 07:36:15;;;;;;;7.53;3.70;;;30.50;49.90;;;;;;4956880;28;20088;-66
2023/07/21 07:38:41;;;;;;;8.18;3.63;;;30.60;49.60;;;;;;4957676;28;20023;-64
2023/07/21 07:41:10;;;;;;;7.80;3.60;;;30.70;49.30;;;;;;4957477;28;20025;-65
2023/07/21 07:43:37;;;;;;;7.75;4.75;;;30.70;49.20;;;;;;4957368;28;20469;-64
2023/07/21 07:46:07;;;;;;;8.13;3.97;;;30.70;49.60;;;;;;4957627;28;20366;-65
2023/07/21 07:48:34;;;;;;;8.20;4.03;;;30.70;49.80;;;;;;4957651;28;20098;-62
2023/07/21 07:51:04;;;;;;;8.40;3.88;;;30.70;49.60;;;;;;4957313;28;20079;-61
2023/07/21 07:53:35;;;;;;;6.65;3.67;;;30.60;49.00;;;;;;4957748;28;20031;-65
2023/07/21 07:56:01;;;;;;;12.27;4.45;;;30.60;49.20;;;;;;4957067;28;20142;-65
2023/07/21 07:58:27;;;;;;;7.50;3.90;;;30.60;49.40;;;;;;4957382;28;20038;-65
2023/07/21 08:00:57;;;;;;;7.90;4.15;;;30.60;50.40;;;;;;4957183;28;20043;-62
2023/07/21 08:03:24;;;;;;;7.15;3.90;;;30.50;49.70;;;;;;4957118;28;20457;-61
2023/07/21 08:05:50;;;;;;;8.07;3.95;;;30.40;50.50;;;;;;4957430;28;20061;-61
2023/07/21 08:08:19;;;;;;;7.43;3.95;;;30.40;50.40;;;;;;4957079;28;20067;-66
2023/07/21 08:10:45;;;;;;;7.70;3.60;;;30.30;51.30;;;;;;4957030;28;20034;-61
2023/07/21 08:13:11;;;;;;;5.82;3.70;;;30.30;51.40;;;;;;4957542;28;20082;-66
2023/07/21 08:15:41;;;;;;;10.82;3.88;;;30.30;50.90;;;;;;4956992;28;20019;-65
2023/07/21 08:18:07;;;;;;;7.40;3.95;;;30.40;51.50;;;;;;4957439;28;20031;-62
2023/07/21 08:20:36;;;;;;;8.77;4.13;;;30.40;50.90;;;;;;4956140;29;20097;-61
2023/07/21 08:23:01;;;;;;;9.48;4.07;;;30.30;50.50;;;;;;4955973;28;20027;-66
2023/07/21 08:25:27;;;;;;;9.77;4.60;;;30.30;50.50;;;;;;4957206;28;20027;-61
2023/07/21 08:27:54;;;;;;;7.55;3.90;;;30.20;50.50;;;;;;4956337;29;20031;-65
2023/07/21 08:30:20;;;;;;;8.30;4.07;;;30.20;51.30;;;;;;4956900;28;20027;-66
2023/07/21 08:32:46;;;;;;;6.20;4.00;;;30.10;51.10;;;;;;4955915;29;20081;-61
2023/07/21 08:35:12;;;;;;;7.82;4.00;;;30.20;50.70;;;;;;4956800;28;20035;-64
2023/07/21 08:37:38;;;;;;;7.20;4.00;;;30.10;50.30;;;;;;4956787;28;20031;-64
2023/07/21 08:40:07;;;;;;;6.03;3.90;;;30.10;50.50;;;;;;4957340;28;20028;-61
2023/07/21 08:42:34;;;;;;;7.55;4.13;;;30.10;50.60;;;;;;4955653;28;20464;-62
2023/07/21 08:45:04;;;;;;;6.93;3.72;;;30.10;51.20;;;;;;4956784;28;20033;-65
2023/07/21 08:47:31;;;;;;;9.75;4.10;;;30.00;50.50;;;;;;4960114;28;20057;-65
2023/07/21 08:49:57;;;;;;;7.60;3.92;;;30.00;50.90;;;;;;4960406;28;20480;-64
2023/07/21 08:52:25;;;;;;;8.68;4.30;;;30.10;51.40;;;;;;4960489;28;20039;-61
2023/07/21 08:54:51;;;;;;;8.65;4.38;;;30.10;51.40;;;;;;4960175;28;20051;-64
2023/07/21 08:57:18;;;;;;;7.72;3.97;;;30.20;51.80;;;;;;4960871;28;20043;-61
2023/07/21 08:59:44;;;;;;;7.35;4.32;;;30.20;51.70;;;;;;4960414;28;20031;-65
2023/07/21 09:02:10;;;;;;;7.85;4.32;;;30.20;51.60;;;;;;4960890;28;20076;-66
2023/07/21 09:04:37;;;;;;;8.30;4.25;;;30.30;51.80;;;;;;4960231;28;20019;-65
2023/07/21 09:07:04;;;;;;;6.43;3.92;;;30.50;52.00;;;;;;4960296;28;20023;-61
2023/07/21 09:09:31;;;;;;;8.15;3.80;;;30.40;50.80;;;;;;4960237;28;20035;-61
2023/07/21 09:12:01;;;;;;;6.53;3.88;;;30.40;51.30;;;;;;4959963;28;20082;-65
2023/07/21 09:14:41;;;;;;;8.48;4.20;;;30.50;51.40;;;;;;4959867;28;20051;-62
2023/07/21 09:17:12;;;;;;;7.22;4.18;;;30.50;50.70;;;;;;4960225;28;20078;-62
2023/07/21 09:19:43;;;;;;;7.20;3.95;;;30.40;49.80;;;;;;4960470;28;20126;-64
2023/07/21 09:22:11;;;;;;;6.90;4.25;;;30.40;50.40;;;;;;4960218;28;20051;-62
2023/07/21 09:24:58;;;;;;;8.48;3.90;;;30.30;50.80;;;;;;4959838;28;20481;-62
2023/07/21 09:27:24;;;;;;;6.80;3.80;;;30.20;51.20;;;;;;4958731;29;20058;-63
2023/07/21 09:30:02;;;;;;;11.25;4.32;;;30.20;51.50;;;;;;4960012;28;20468;-63
2023/07/21 09:32:37;;;;;;;6.97;4.22;;;30.20;51.50;;;;;;4959762;28;20476;-66
2023/07/21 09:35:05;;;;;;;8.13;3.95;;;30.10;51.50;;;;;;4959976;28;20031;-62
2023/07/21 09:37:35;;;;;;;6.93;3.95;;;30.00;50.30;;;;;;4959609;28;20175;-65
2023/07/21 09:40:09;;;;;;;8.95;4.32;;;30.00;50.50;;;;;;4959745;28;20023;-64
2023/07/21 09:42:37;;;;;;;8.00;4.10;;;29.90;51.00;;;;;;4960195;28;20050;-65
2023/07/21 09:45:04;;;;;;;7.07;3.90;;;29.70;51.10;;;;;;4959313;28;20488;-65
2023/07/21 09:47:30;;;;;;;6.88;4.40;;;29.80;51.60;;;;;;4959538;28;20035;-65
2023/07/21 09:50:00;;;;;;;6.55;3.90;;;29.90;51.10;;;;;;4959449;28;20160;-62
2023/07/21 09:52:27;;;;;;;8.77;4.15;;;29.80;51.70;;;;;;4959384;28;20365;-62
2023/07/21 09:55:13;;;;;;;5.95;3.85;;;29.70;51.70;;;;;;4958195;29;20058;-62
2023/07/21 09:57:44;;;;;;;6.72;4.15;;;29.40;52.30;;;;;;4958585;28;20051;-66
2023/07/21 10:00:14;;;;;;;10.88;4.40;;;29.40;52.00;;;;;;4959255;28;20039;-66
2023/07/21 10:02:44;;;;;;;6.95;3.80;;;29.40;52.40;;;;;;4959211;28;20031;-66
2023/07/21 10:05:11;;;;;;;7.05;4.15;;;29.30;53.00;;;;;;4959126;28;20484;-62
2023/07/21 10:07:46;;;;;;;7.55;4.28;;;29.10;53.40;;;;;;4959137;28;20107;-62
2023/07/21 10:10:12;;;;;;;7.60;4.13;;;29.10;53.80;;;;;;4959108;28;20043;-62
2023/07/21 10:12:46;;;;;;;7.13;4.40;;;28.90;53.70;;;;;;4959083;28;20035;-66
2023/07/21 10:15:30;;;;;;;9.55;4.22;;;28.90;53.90;;;;;;4958057;28;20027;-62
2023/07/21 10:17:58;;;;;;;;;;;28.70;54.70;;;;;;4959677;28;20031;-63
2023/07/21 10:20:48;;;;;;;9.02;4.22;;;28.60;55.20;;;;;;4958980;28;19906;-62
2023/07/21 10:23:16;;;;;;;10.38;4.60;;;28.50;55.50;;;;;;4958881;28;20437;-65
2023/07/21 10:26:02;;;;;;;7.63;4.30;;;28.50;55.70;;;;;;4958792;28;20454;-63
2023/07/21 10:28:35;;;;;;;8.40;4.45;;;28.40;55.50;;;;;;4959428;28;20098;-64
2023/07/21 10:31:26;;;;;;;7.97;4.10;;;28.30;55.90;;;;;;4959370;28;20445;-62
2023/07/21 10:34:09;;;;;;;7.75;4.25;;;28.10;56.30;;;;;;4958553;28;20078;-65
2023/07/21 10:36:51;;;;;;;7.80;4.20;;;28.00;57.00;;;;;;4958672;28;20066;-62
2023/07/21 10:39:22;;;;;;;8.07;4.40;;;27.80;57.70;;;;;;4959094;28;20114;-62
2023/07/21 10:41:50;;;;;;;7.63;4.60;;;27.70;57.90;;;;;;4942871;29;20042;-63
2023/07/21 10:44:16;;;;;;;7.30;4.75;;;27.50;58.20;;;;;;4958714;28;20042;-65
2023/07/21 10:46:45;;;;;;;9.93;4.57;;;27.40;58.50;;;;;;4958457;28;20028;-65
2023/07/21 10:49:13;;;;;;;7.47;4.60;;;27.30;58.80;;;;;;4958694;28;20093;-66
2023/07/21 10:51:45;;;;;;;9.35;4.75;;;27.20;59.50;;;;;;4957485;29;20200;-61
2023/07/21 10:54:11;;;;;;;9.40;4.10;;;27.00;60.30;;;;;;4958476;28;20031;-65
2023/07/21 10:56:42;;;;;;;10.50;4.50;;;26.90;60.70;;;;;;4957747;29;20085;-65
2023/07/21 10:59:13;;;;;;;10.55;4.30;;;26.90;60.60;;;;;;4958473;28;20077;-65
2023/07/21 11:01:46;;;;;;;9.85;4.65;;;26.80;60.70;;;;;;4958446;28;20023;-65
2023/07/21 11:04:14;;;;;;;;;;;26.80;60.80;;;;;;4958793;28;20023;-62
2023/07/21 11:06:42;;;;;;;8.18;3.60;;;26.90;61.10;;;;;;4958048;28;19993;-66
2023/07/21 11:09:11;;;;;;;9.18;3.47;;;26.90;61.80;;;;;;4957065;28;20039;-61
2023/07/21 11:11:48;;;;;;;5.57;2.53;;;26.90;60.60;;;;;;4958025;28;20031;-62
2023/07/21 11:14:20;;;;;;;8.25;2.47;;;26.60;58.70;;;;;;4958272;28;20024;-65
2023/07/21 11:16:55;;;;;;;5.43;2.45;;;26.30;58.60;;;;;;4957921;28;20115;-62
2023/07/21 11:19:25;;;;;;;5.63;2.72;;;25.90;59.20;;;;;;4958370;28;20398;-66
2023/07/21 11:21:52;;;;;;;9.40;3.67;;;25.40;61.30;;;;;;4958284;28;20358;-65
2023/07/21 11:24:19;;;;;;;8.65;3.90;;;25.00;62.90;;;;;;4957710;28;20023;-61
2023/07/21 11:26:49;;;;;;;7.32;2.92;;;24.50;63.40;;;;;;4957698;28;20015;-61
2023/07/21 11:29:16;;;;;;;6.75;2.90;;;24.00;64.10;;;;;;4956725;29;20035;-66
2023/07/21 11:31:43;;;;;;;8.07;3.80;;;23.50;64.80;;;;;;4957635;28;20038;-65
2023/07/21 11:34:18;;;;;;;10.02;3.22;;;23.20;66.80;;;;;;4957768;28;20114;-61
2023/07/21 11:36:46;;;;;;;6.93;3.45;;;22.70;67.50;;;;;;4957882;28;20105;-62
2023/07/21 11:39:19;;;;;;;6.82;3.17;;;22.50;68.10;;;;;;4956863;29;20039;-62
2023/07/21 11:41:51;;;;;;;6.93;3.42;;;22.40;68.40;;;;;;4956929;29;20031;-65
2023/07/21 11:44:27;;;;;;;6.35;3.00;;;22.30;68.80;;;;;;4957331;28;20030;-61
2023/07/21 11:47:04;;;;;;;8.07;3.30;;;22.30;69.10;;;;;;4957109;29;20023;-66
2023/07/21 11:49:31;;;;;;;10.05;3.80;;;22.40;69.40;;;;;;4957680;28;20046;-66
2023/07/21 11:51:59;;;;;;;8.45;3.70;;;22.60;70.10;;;;;;4957352;28;20027;-66
2023/07/21 11:54:28;;;;;;;6.15;2.85;;;22.40;69.90;;;;;;4957047;29;20054;-61
2023/07/21 11:56:55;;;;;;;4.68;2.70;;;22.50;69.50;;;;;;4956395;29;20023;-61
2023/07/21 11:59:23;;;;;;;5.25;2.63;;;22.40;69.50;;;;;;4957164;28;20091;-61
2023/07/21 12:01:50;;;;;;;4.25;2.58;;;22.10;70.50;;;;;;4957165;28;20449;-66
2023/07/21 12:04:19;;;;;;;5.15;2.85;;;21.70;71.00;;;;;;4957640;28;20090;-66
2023/07/21 12:06:45;;;;;;;6.05;2.50;;;21.50;71.50;;;;;;4956551;29;20023;-65
2023/07/21 12:09:12;;;;;;;6.18;2.70;;;21.30;71.40;;;;;;4957192;28;20031;-61
2023/07/21 12:11:39;;;;;;;4.95;3.00;;;21.40;71.90;;;;;;4957393;28;20035;-66
2023/07/21 12:14:06;;;;;;;9.68;3.22;;;21.40;72.10;;;;;;4957033;28;20330;-61
2023/07/21 12:16:35;;;;;;;6.45;3.22;;;21.40;72.80;;;;;;4957350;28;20472;-61
2023/07/21 12:19:03;;;;;;;5.85;3.40;;;21.30;73.70;;;;;;4957284;28;20035;-61
2023/07/21 12:21:30;;;;;;;7.90;3.67;;;21.30;74.40;;;;;;4956518;28;20544;-60
2023/07/21 12:23:57;;;;;;;7.47;3.88;;;21.40;74.80;;;;;;4956969;28;20097;-61
2023/07/21 12:26:24;;;;;;;5.82;3.67;;;21.40;74.90;;;;;;4957307;28;20015;-62
2023/07/21 12:28:53;;;;;;;6.43;3.30;;;21.60;75.10;;;;;;4956915;28;20043;-61
2023/07/21 12:31:20;;;;;;;10.20;3.72;;;21.90;74.70;;;;;;4955997;28;20358;-61
2023/07/21 12:33:48;;;;;;;5.88;3.10;;;22.20;74.50;;;;;;4956932;28;20031;-61
2023/07/21 12:36:18;;;;;;;8.20;3.40;;;22.60;73.30;;;;;;4956904;28;20027;-61
2023/07/21 12:38:44;;;;;;;7.05;3.60;;;22.90;72.30;;;;;;4951466;28;20032;-65
2023/07/21 12:41:11;;;;;;;6.18;3.13;;;23.40;71.50;;;;;;4947003;28;20156;-66
2023/07/21 12:43:37;;;;;;;7.22;3.15;;;23.80;70.50;;;;;;4950496;28;20114;-62
2023/07/21 12:46:04;;;;;;;4.93;2.78;;;24.20;69.50;;;;;;4953074;29;20113;-62
2023/07/21 12:48:33;;;;;;;5.35;2.80;;;24.50;68.40;;;;;;4953504;29;20085;-62
2023/07/21 12:51:01;;;;;;;6.70;3.25;;;24.90;67.30;;;;;;4940310;29;20062;-62
2023/07/21 12:53:28;;;;;;;4.68;2.95;;;25.10;66.50;;;;;;4937566;29;20383;-66